Terminal Aerodrome Forecast
Issued by NWS El Paso, TX

Home | Current Version | Previous Version | Text Only | Print | Product List | Glossary On
Versions: 1 2 3 4 5 6 7 8 9 10 11 12 13 14
000
FTUS44 KEPZ 021145
TAFELP
TAF
KELP 021145Z 0212/0312 11004KT P6SM FEW100 FEW250
     FM022000 08006KT P6SM FEW100 SCT130 SCT250
     FM030600 11007KT P6SM VCTS SCT090CB SCT130 BKN250=

USA.gov is the U.S. government's official web portal to all federal, state and local government web resources and services.